Elsenborn, Belgium
Current Conditions -  °F | °C
As of 9:33 PM on Sunday 25 Jan 2015 (Local Time) from EBLB Reporting Station
Broken Clouds Broken Clouds  
Wind Chill: 27°   Ceiling: 700
Heat Index: 32°   Visibility: 0.62mi
Dew Point: 32°   Wind: 5mph
Humidity: 100%   Direction: 240°WSW
Pressure: 30.33"   Gusts: NA
Location:  50.46°N, 6.22°E
Report Text: EBLB 252033Z AUTO 24004KT 1000 SCT001/// BKN007/// BKN010/// M00/M00 Q1027 RED
Loading
Personal Weather Stations






























Interactive Weather Map New forecast layout! Learn more

10-Day Weather Forecast

Advertisements
Track Severe Weather on mobile